Time;durP1;ratioP1;P1;durP2;ratioP2;P2;SDS_P1;SDS_P2;PMS_P1;PMS_P2;Temp;Humidity;BMP_temperature;BMP_pressure;BME280_temperature;BME280_humidity;BME280_pressure;Samples;Min_cycle;Max_cycle;Signal;HPM_P1;HPM_P2
2022/03/29 00:00:36;;;;;;;16.43;9.57;;;9.80;72.60;;;;;;5032066;28;20609;-74
2022/03/29 00:03:06;;;;;;;15.00;9.47;;;9.80;73.20;;;;;;5031702;28;20198;-73
2022/03/29 00:05:32;;;;;;;20.33;10.03;;;9.80;72.70;;;;;;5031629;28;20477;-73
2022/03/29 00:07:58;;;;;;;19.80;10.30;;;9.80;73.40;;;;;;5031604;28;20452;-73
2022/03/29 00:10:24;;;;;;;17.53;9.70;;;9.70;73.80;;;;;;5031757;28;20458;-73
2022/03/29 00:12:53;;;;;;;18.17;9.87;;;9.70;74.00;;;;;;5031668;28;21020;-73
2022/03/29 00:15:20;;;;;;;16.10;9.60;;;9.60;74.30;;;;;;5046586;28;20932;-73
2022/03/29 00:17:45;;;;;;;20.97;9.13;;;9.60;74.80;;;;;;5030209;28;20505;-73
2022/03/29 00:20:11;;;;;;;15.67;9.90;;;9.60;74.30;;;;;;5030037;28;20981;-73
2022/03/29 00:22:37;;;;;;;16.93;9.93;;;9.50;75.90;;;;;;5031384;28;20550;-73
2022/03/29 00:25:03;;;;;;;16.53;9.43;;;9.50;76.30;;;;;;5031321;28;20208;-73
2022/03/29 00:27:29;;;;;;;18.17;9.90;;;9.50;75.90;;;;;;5046697;28;20186;-73
2022/03/29 00:29:55;;;;;;;21.03;9.60;;;9.50;76.20;;;;;;5029953;28;20438;-73
2022/03/29 00:32:20;;;;;;;17.10;8.73;;;9.40;76.20;;;;;;5046148;28;20223;-73
2022/03/29 00:34:46;;;;;;;16.83;9.10;;;9.40;77.20;;;;;;5046507;28;20217;-73
2022/03/29 00:37:11;;;;;;;18.67;10.90;;;9.40;78.30;;;;;;5031331;28;20201;-73
2022/03/29 00:39:37;;;;;;;20.73;10.33;;;9.30;79.10;;;;;;5030234;28;20631;-73
2022/03/29 00:42:03;;;;;;;19.13;9.40;;;9.30;78.80;;;;;;5031742;28;20216;-74
2022/03/29 00:44:34;;;;;;;23.00;9.70;;;9.20;77.00;;;;;;5030477;28;20328;-73
2022/03/29 00:47:01;;;;;;;19.73;9.80;;;9.20;78.20;;;;;;5031916;28;20423;-74
2022/03/29 00:49:28;;;;;;;16.13;9.63;;;9.20;79.20;;;;;;5032318;28;20962;-74
2022/03/29 00:51:58;;;;;;;15.83;9.43;;;9.20;79.20;;;;;;5031359;28;20449;-74
2022/03/29 00:54:28;;;;;;;22.97;9.63;;;9.20;80.10;;;;;;5031058;28;20490;-74
2022/03/29 00:56:57;;;;;;;30.93;10.17;;;9.20;80.50;;;;;;5045459;28;20424;-75
2022/03/29 00:59:24;;;;;;;21.47;9.83;;;9.20;80.00;;;;;;5030903;28;20836;-74
2022/03/29 01:01:50;;;;;;;20.17;9.40;;;9.20;79.80;;;;;;5029305;28;20494;-74
2022/03/29 01:04:16;;;;;;;20.33;10.13;;;9.20;79.10;;;;;;5030778;28;20824;-74
2022/03/29 01:06:43;;;;;;;19.83;9.97;;;9.20;80.00;;;;;;5029425;28;20425;-74
2022/03/29 01:09:10;;;;;;;22.57;9.80;;;9.20;80.30;;;;;;5030690;28;20184;-74
2022/03/29 01:11:37;;;;;;;17.60;9.30;;;9.20;81.40;;;;;;5028974;28;20474;-74
2022/03/29 01:14:03;;;;;;;16.43;9.00;;;9.10;80.60;;;;;;5045849;28;20888;-74
2022/03/29 01:19:20;;;;;;;16.50;9.53;;;9.10;80.80;;;;;;5030691;28;20474;-74
2022/03/29 01:22:12;;;;;;;21.00;10.00;;;9.10;80.60;;;;;;5030324;28;20530;-74
2022/03/29 01:24:43;;;;;;;18.37;9.50;;;9.20;80.80;;;;;;5026618;28;20556;-75
2022/03/29 01:27:11;;;;;;;17.63;11.63;;;9.20;80.10;;;;;;5030313;28;20418;-73
2022/03/29 01:29:38;;;;;;;21.67;10.13;;;9.20;78.90;;;;;;5030190;28;20518;-73
2022/03/29 01:32:07;;;;;;;16.37;9.97;;;9.30;79.30;;;;;;5028571;28;20435;-73
2022/03/29 01:34:35;;;;;;;18.60;9.63;;;9.30;79.50;;;;;;5045262;28;20436;-74
2022/03/29 01:37:03;;;;;;;16.77;9.90;;;9.30;78.30;;;;;;5030198;28;20425;-73
2022/03/29 01:39:29;;;;;;;16.77;10.37;;;9.30;79.00;;;;;;5045234;28;20425;-74
2022/03/29 01:41:54;;;;;;;17.73;9.93;;;9.30;78.90;;;;;;5012176;28;20454;-73
2022/03/29 01:44:20;;;;;;;26.33;9.30;;;9.30;77.80;;;;;;5029980;28;20290;-74
2022/03/29 01:46:46;;;;;;;19.00;11.00;;;9.50;79.10;;;;;;5028428;28;20286;-72
2022/03/29 01:49:13;;;;;;;17.83;9.60;;;9.30;79.70;;;;;;5029902;28;20187;-72
2022/03/29 01:51:39;;;;;;;19.87;10.57;;;9.30;79.20;;;;;;5044900;28;20208;-74
2022/03/29 01:54:05;;;;;;;17.73;10.23;;;9.20;80.50;;;;;;5028469;28;20415;-74
2022/03/29 01:56:32;;;;;;;14.53;9.87;;;9.20;81.40;;;;;;5029842;28;20971;-76
2022/03/29 01:59:08;;;;;;;14.30;9.80;;;9.10;80.90;;;;;;5029759;28;20188;-73
2022/03/29 02:01:44;;;;;;;16.80;10.10;;;9.20;81.20;;;;;;5029586;28;20439;-74
2022/03/29 02:04:10;;;;;;;18.10;10.27;;;9.10;80.80;;;;;;5044823;28;20460;-74
2022/03/29 02:06:36;;;;;;;13.73;9.87;;;9.10;81.10;;;;;;5029625;28;20424;-74
2022/03/29 02:09:03;;;;;;;17.93;10.40;;;9.10;82.10;;;;;;5044793;28;20977;-74
2022/03/29 02:11:29;;;;;;;20.30;10.67;;;9.00;82.30;;;;;;5029559;28;20711;-74
2022/03/29 02:13:55;;;;;;;17.67;10.60;;;9.00;83.00;;;;;;5029611;28;20457;-73
2022/03/29 02:16:20;;;;;;;26.93;12.67;;;8.90;83.50;;;;;;5029895;28;20187;-74
2022/03/29 02:18:46;;;;;;;17.10;10.73;;;8.90;83.00;;;;;;5028459;28;20427;-74
2022/03/29 02:21:16;;;;;;;18.00;9.83;;;8.90;83.30;;;;;;5045093;28;20200;-73
2022/03/29 02:23:42;;;;;;;16.60;10.33;;;8.80;84.10;;;;;;5029726;28;20684;-73
2022/03/29 02:26:08;;;;;;;16.63;10.30;;;8.70;84.90;;;;;;5030806;28;20979;-73
2022/03/29 02:28:34;;;;;;;15.40;10.30;;;8.70;85.60;;;;;;5031221;28;20427;-74
2022/03/29 02:31:00;;;;;;;14.23;9.33;;;8.70;85.50;;;;;;5030937;28;20349;-73
2022/03/29 02:33:25;;;;;;;17.17;10.53;;;8.70;84.40;;;;;;5045650;28;20613;-73
2022/03/29 02:35:51;;;;;;;20.53;10.07;;;8.60;83.90;;;;;;5030634;28;20192;-73
2022/03/29 02:38:18;;;;;;;19.73;10.13;;;8.60;84.00;;;;;;5029137;28;20283;-73
2022/03/29 02:40:44;;;;;;;17.70;9.97;;;8.60;84.90;;;;;;5030678;28;20248;-73
2022/03/29 02:43:10;;;;;;;20.97;11.00;;;8.60;82.60;;;;;;5028953;28;20463;-72
2022/03/29 02:45:36;;;;;;;17.37;10.50;;;8.80;79.30;;;;;;5029692;28;20486;-73
2022/03/29 02:48:01;;;;;;;18.20;9.90;;;8.80;84.50;;;;;;5029842;28;20412;-74
2022/03/29 02:50:27;;;;;;;19.43;11.53;;;8.80;85.40;;;;;;5028675;28;20671;-73
2022/03/29 02:52:59;;;;;;;21.93;10.17;;;8.80;82.40;;;;;;5029531;28;20287;-74
2022/03/29 02:55:27;;;;;;;24.03;11.70;;;8.90;81.70;;;;;;5029369;28;20575;-74
2022/03/29 02:57:53;;;;;;;24.27;11.70;;;9.20;78.00;;;;;;5029283;28;20422;-73
2022/03/29 03:00:20;;;;;;;24.77;10.63;;;9.30;77.30;;;;;;5011239;28;20516;-74
2022/03/29 03:02:50;;;;;;;22.93;11.30;;;9.40;74.80;;;;;;5029146;28;20859;-74
2022/03/29 03:05:16;;;;;;;20.23;10.40;;;9.60;73.80;;;;;;5029138;28;20463;-74
2022/03/29 03:07:43;;;;;;;19.20;10.10;;;9.70;73.70;;;;;;4994630;28;20431;-74
2022/03/29 03:10:10;;;;;;;20.80;10.40;;;9.80;73.60;;;;;;5028704;28;20904;-74
2022/03/29 03:12:40;;;;;;;20.43;10.60;;;9.80;73.10;;;;;;5028519;28;20445;-73
2022/03/29 03:15:08;;;;;;;22.83;10.97;;;9.90;73.40;;;;;;5027337;28;20453;-74
2022/03/29 03:17:34;;;;;;;19.13;10.77;;;9.90;73.00;;;;;;5028564;28;20427;-73
2022/03/29 03:19:59;;;;;;;19.77;10.10;;;9.90;73.90;;;;;;5029611;28;20916;-74
2022/03/29 03:22:27;;;;;;;21.13;10.97;;;9.90;75.20;;;;;;5033522;28;20237;-74
2022/03/29 03:24:52;;;;;;;21.97;12.30;;;9.60;77.80;;;;;;5033582;28;20479;-74
2022/03/29 03:27:19;;;;;;;20.90;11.33;;;9.20;81.70;;;;;;5033887;28;20473;-73
2022/03/29 03:29:45;;;;;;;28.47;13.13;;;9.00;83.40;;;;;;5035069;28;20529;-73
2022/03/29 03:32:11;;;;;;;18.47;11.60;;;8.90;85.10;;;;;;5049955;28;20480;-73
2022/03/29 03:34:38;;;;;;;19.63;9.93;;;8.70;84.80;;;;;;5035072;28;20902;-74
2022/03/29 03:37:04;;;;;;;18.43;10.40;;;8.60;85.20;;;;;;5035314;28;20484;-73
2022/03/29 03:39:34;;;;;;;18.40;9.93;;;8.70;85.20;;;;;;5034982;28;20508;-75
2022/03/29 03:42:07;;;;;;;23.00;11.57;;;8.60;86.30;;;;;;5033292;28;20486;-75
2022/03/29 03:44:33;;;;;;;18.90;10.80;;;8.50;85.60;;;;;;5034791;28;20470;-75
2022/03/29 03:47:00;;;;;;;20.97;10.70;;;8.50;86.30;;;;;;5034950;28;20888;-75
2022/03/29 03:49:26;;;;;;;30.33;11.10;;;8.50;86.90;;;;;;5034774;28;20446;-74
2022/03/29 03:51:52;;;;;;;19.40;11.50;;;8.40;86.70;;;;;;5034772;28;20439;-74
2022/03/29 03:54:18;;;;;;;22.07;11.03;;;8.40;86.50;;;;;;5034886;28;20592;-73
2022/03/29 03:56:43;;;;;;;17.27;10.70;;;8.30;87.20;;;;;;5016907;28;20180;-74
2022/03/29 03:59:09;;;;;;;24.70;11.30;;;8.30;87.60;;;;;;5033488;28;20196;-74
2022/03/29 04:01:35;;;;;;;24.10;10.87;;;8.20;87.80;;;;;;5033272;28;20239;-74
2022/03/29 04:04:00;;;;;;;15.60;10.17;;;8.30;88.80;;;;;;5035075;28;20186;-74
2022/03/29 04:06:26;;;;;;;18.67;10.40;;;8.10;88.10;;;;;;5035367;28;20208;-74
2022/03/29 04:08:52;;;;;;;18.03;10.40;;;8.10;88.60;;;;;;5033902;28;20649;-73
2022/03/29 04:11:19;;;;;;;22.37;11.23;;;8.20;88.60;;;;;;5035390;28;20200;-73
2022/03/29 04:13:44;;;;;;;21.73;10.80;;;8.00;89.40;;;;;;5034239;28;20213;-74
2022/03/29 04:16:10;;;;;;;18.83;10.30;;;7.90;89.60;;;;;;5034260;28;20462;-74
2022/03/29 04:18:36;;;;;;;24.50;10.93;;;7.90;88.90;;;;;;5035510;28;20200;-75
2022/03/29 04:21:01;;;;;;;19.20;10.73;;;7.80;89.70;;;;;;5017467;28;20190;-74
2022/03/29 04:23:28;;;;;;;17.27;10.17;;;7.70;90.70;;;;;;5050469;28;20212;-74
2022/03/29 04:25:54;;;;;;;19.13;11.00;;;7.60;90.70;;;;;;5035318;28;20215;-74
2022/03/29 04:28:19;;;;;;;18.40;11.33;;;7.60;90.80;;;;;;5033953;28;20803;-74
2022/03/29 04:30:45;;;;;;;18.50;10.47;;;7.60;91.10;;;;;;5035326;28;20423;-74
2022/03/29 04:33:11;;;;;;;22.60;11.80;;;7.60;91.10;;;;;;5029939;28;20725;-74
2022/03/29 04:35:37;;;;;;;21.03;10.70;;;7.50;91.40;;;;;;5029379;28;20522;-74
2022/03/29 04:38:02;;;;;;;18.47;11.83;;;7.50;91.50;;;;;;5030182;28;20192;-74
2022/03/29 04:40:28;;;;;;;30.53;11.17;;;7.50;92.10;;;;;;5032237;28;20228;-75
2022/03/29 04:42:54;;;;;;;18.93;11.20;;;7.50;91.60;;;;;;5028541;28;20211;-74
2022/03/29 04:45:20;;;;;;;15.60;10.50;;;7.50;91.50;;;;;;5044908;28;20269;-75
2022/03/29 04:47:47;;;;;;;21.87;11.87;;;7.40;91.40;;;;;;5029516;28;20185;-75
2022/03/29 04:50:14;;;;;;;19.93;12.50;;;7.40;91.40;;;;;;5029577;28;20441;-75
2022/03/29 04:52:44;;;;;;;22.67;12.43;;;7.40;91.60;;;;;;5029470;28;20450;-75
2022/03/29 04:55:11;;;;;;;20.03;12.33;;;7.40;92.30;;;;;;5029449;28;20427;-75
2022/03/29 04:57:37;;;;;;;21.83;10.53;;;7.40;92.20;;;;;;5029510;28;20431;-75
2022/03/29 05:00:06;;;;;;;20.63;11.33;;;7.40;92.20;;;;;;5029716;28;20438;-75
2022/03/29 05:02:35;;;;;;;21.27;10.43;;;7.30;92.60;;;;;;5028129;28;20435;-75
2022/03/29 05:05:01;;;;;;;19.87;11.40;;;7.20;92.80;;;;;;5029301;28;20538;-75
2022/03/29 05:07:28;;;;;;;27.53;12.83;;;7.20;93.10;;;;;;5027985;28;20427;-75
2022/03/29 05:09:54;;;;;;;27.30;12.90;;;7.20;93.40;;;;;;5029586;28;20483;-75
2022/03/29 05:12:20;;;;;;;26.87;12.30;;;7.20;93.20;;;;;;5044341;28;20459;-75
2022/03/29 05:14:46;;;;;;;28.53;12.57;;;7.30;93.40;;;;;;5029801;28;20485;-75
2022/03/29 05:17:11;;;;;;;34.63;13.37;;;7.40;93.60;;;;;;5028375;28;20203;-75
2022/03/29 05:19:37;;;;;;;31.50;14.10;;;7.50;93.90;;;;;;5029477;28;20195;-75
2022/03/29 05:22:03;;;;;;;33.53;13.03;;;7.60;93.40;;;;;;5027567;28;20213;-75
2022/03/29 05:24:28;;;;;;;20.87;11.60;;;7.70;93.50;;;;;;5027599;28;20675;-74
2022/03/29 05:26:54;;;;;;;24.07;13.37;;;7.70;93.10;;;;;;5011341;28;20191;-75
2022/03/29 05:29:20;;;;;;;22.33;12.90;;;7.70;93.40;;;;;;5028987;28;20236;-75
2022/03/29 05:31:46;;;;;;;26.67;15.20;;;7.50;94.40;;;;;;5029211;28;20201;-75
2022/03/29 05:34:13;;;;;;;31.73;16.67;;;7.30;94.80;;;;;;5029644;28;20862;-75
2022/03/29 05:36:43;;;;;;;28.53;15.03;;;7.30;94.40;;;;;;5028067;28;20572;-75
2022/03/29 05:39:10;;;;;;;19.50;12.60;;;7.40;94.10;;;;;;5029363;28;20513;-74
2022/03/29 05:41:35;;;;;;;22.53;14.27;;;7.40;94.30;;;;;;5029110;28;20481;-75
2022/03/29 05:44:01;;;;;;;23.13;13.87;;;7.40;94.20;;;;;;5027322;28;20423;-75
2022/03/29 05:49:11;;;;;;;24.00;12.97;;;7.50;94.50;;;;;;5013884;28;20200;-75
2022/03/29 05:51:37;;;;;;;20.50;12.83;;;7.50;94.40;;;;;;5028848;28;20447;-75
2022/03/29 05:54:04;;;;;;;27.83;14.70;;;7.50;93.60;;;;;;5043982;28;20783;-75
2022/03/29 05:56:30;;;;;;;30.60;16.67;;;7.60;93.50;;;;;;5029191;28;20191;-75
2022/03/29 05:58:56;;;;;;;31.80;18.10;;;7.70;94.00;;;;;;5028533;28;20892;-75
2022/03/29 06:01:22;;;;;;;119.97;57.27;;;7.70;93.70;;;;;;5027321;28;20432;-75
2022/03/29 06:03:49;;;;;;;39.97;22.43;;;7.80;93.10;;;;;;5011252;28;20423;-75
2022/03/29 06:06:14;;;;;;;38.20;19.23;;;7.90;92.80;;;;;;5028846;28;20219;-75
2022/03/29 06:08:41;;;;;;;29.20;16.63;;;8.00;93.10;;;;;;5028613;28;20420;-75
2022/03/29 06:11:07;;;;;;;52.27;27.57;;;8.00;92.70;;;;;;5028688;28;20584;-75
2022/03/29 06:13:33;;;;;;;31.57;18.27;;;8.20;92.80;;;;;;5028221;28;20450;-75
2022/03/29 06:15:59;;;;;;;23.80;13.13;;;8.30;93.00;;;;;;5028326;28;20188;-74
2022/03/29 06:18:25;;;;;;;23.43;15.77;;;8.30;94.20;;;;;;5026831;28;20424;-74
2022/03/29 06:20:51;;;;;;;23.80;14.13;;;8.30;93.30;;;;;;5010181;28;20427;-74
2022/03/29 06:23:17;;;;;;;33.43;16.57;;;8.40;94.00;;;;;;5026597;28;20444;-74
2022/03/29 06:25:43;;;;;;;18.60;10.67;;;8.50;93.80;;;;;;5028486;28;20993;-74
2022/03/29 06:28:11;;;;;;;19.80;12.03;;;8.70;93.90;;;;;;5027961;28;20422;-75
2022/03/29 06:30:40;;;;;;;33.73;12.57;;;8.70;93.90;;;;;;5027241;28;20418;-75
2022/03/29 06:33:06;;;;;;;23.07;12.00;;;8.80;93.40;;;;;;5028627;28;20475;-75
2022/03/29 06:35:34;;;;;;;26.63;13.33;;;8.90;93.50;;;;;;5028229;28;21119;-75
2022/03/29 06:38:00;;;;;;;16.63;10.67;;;8.90;93.00;;;;;;5029522;28;20232;-75
2022/03/29 06:40:27;;;;;;;99.20;16.50;;;9.00;92.30;;;;;;5012070;28;20442;-75
2022/03/29 06:42:55;;;;;;;37.97;11.90;;;9.10;92.10;;;;;;5045857;28;20452;-75
2022/03/29 06:45:21;;;;;;;27.97;12.40;;;9.10;90.40;;;;;;5030353;28;20468;-75
2022/03/29 06:47:47;;;;;;;22.60;12.90;;;9.10;89.80;;;;;;5028534;28;20523;-75
2022/03/29 06:50:14;;;;;;;28.17;12.60;;;9.20;90.70;;;;;;5029032;28;20654;-75
2022/03/29 06:52:41;;;;;;;28.37;12.80;;;9.30;91.40;;;;;;5028551;28;20489;-75
2022/03/29 06:55:09;;;;;;;18.70;11.90;;;9.30;91.70;;;;;;5027754;28;20419;-75
2022/03/29 06:57:35;;;;;;;22.67;13.67;;;9.20;91.60;;;;;;5028262;28;20442;-75
2022/03/29 07:00:02;;;;;;;20.53;12.17;;;9.10;91.10;;;;;;5027124;28;21407;-75
2022/03/29 07:02:28;;;;;;;21.67;11.67;;;9.00;91.60;;;;;;5010543;28;20221;-75
2022/03/29 07:04:53;;;;;;;23.00;11.93;;;9.00;91.90;;;;;;5028555;28;20500;-75
2022/03/29 07:07:19;;;;;;;24.77;13.07;;;9.10;92.00;;;;;;5027516;28;20510;-75
2022/03/29 07:12:30;;;;;;;16.70;11.73;;;9.20;92.50;;;;;;5027911;28;20581;-75
2022/03/29 07:14:58;;;;;;;22.73;10.93;;;9.40;91.60;;;;;;5028703;28;20469;-75
2022/03/29 07:17:24;;;;;;;23.67;12.07;;;9.70;92.20;;;;;;5027234;28;21145;-75
2022/03/29 07:19:49;;;;;;;19.47;11.23;;;9.80;91.50;;;;;;5028441;28;20428;-75
2022/03/29 07:22:16;;;;;;;20.63;11.77;;;10.00;90.40;;;;;;5026661;28;20452;-74
2022/03/29 07:24:42;;;;;;;21.13;12.10;;;10.20;90.00;;;;;;5027945;28;20233;-75
2022/03/29 07:27:08;;;;;;;417.83;45.40;;;10.20;89.10;;;;;;5028184;28;20960;-75
2022/03/29 07:29:34;;;;;;;137.13;23.43;;;10.40;90.10;;;;;;5010194;28;20186;-75
2022/03/29 07:32:00;;;;;;;44.90;20.10;;;10.80;90.50;;;;;;5026245;28;20443;-75
2022/03/29 07:34:26;;;;;;;38.63;14.80;;;10.90;90.10;;;;;;5027747;28;20423;-75
2022/03/29 07:36:52;;;;;;;22.53;12.97;;;11.00;90.60;;;;;;5027368;28;20429;-75
2022/03/29 07:39:18;;;;;;;49.63;14.43;;;11.20;90.30;;;;;;5026923;28;20179;-75
2022/03/29 07:41:44;;;;;;;26.00;12.90;;;11.30;88.30;;;;;;5026897;28;20524;-74
2022/03/29 07:44:10;;;;;;;19.07;12.27;;;11.40;85.50;;;;;;5027355;28;20208;-74
2022/03/29 07:46:36;;;;;;;21.40;12.57;;;11.50;88.60;;;;;;5027365;28;20252;-74
2022/03/29 07:49:02;;;;;;;22.10;13.43;;;11.70;85.90;;;;;;5042214;28;20465;-74
2022/03/29 07:51:27;;;;;;;22.47;13.83;;;11.80;82.20;;;;;;5027219;28;20430;-75
2022/03/29 07:53:53;;;;;;;28.43;13.17;;;11.90;83.20;;;;;;5025880;28;20444;-75
2022/03/29 07:56:18;;;;;;;29.80;14.30;;;12.00;83.30;;;;;;5027487;28;20232;-75
2022/03/29 07:58:44;;;;;;;24.27;14.27;;;12.10;83.90;;;;;;5027581;28;20247;-75
2022/03/29 08:01:10;;;;;;;21.17;13.90;;;12.10;84.70;;;;;;5042906;28;20194;-75
2022/03/29 08:03:36;;;;;;;22.73;13.70;;;12.20;85.30;;;;;;5027564;28;20209;-75
2022/03/29 08:06:02;;;;;;;24.20;12.90;;;12.40;85.10;;;;;;5027857;28;20215;-75
2022/03/29 08:08:30;;;;;;;19.97;12.33;;;12.60;81.50;;;;;;5029705;28;20431;-75
2022/03/29 08:10:56;;;;;;;26.47;13.50;;;12.90;80.80;;;;;;5031196;28;20442;-75
2022/03/29 08:13:23;;;;;;;23.23;12.23;;;13.20;81.30;;;;;;5031217;28;20479;-75
2022/03/29 08:15:52;;;;;;;17.10;11.50;;;13.30;77.50;;;;;;5013331;28;20461;-75
2022/03/29 08:18:18;;;;;;;19.67;12.63;;;13.40;76.50;;;;;;5030032;28;20456;-75
2022/03/29 08:20:43;;;;;;;24.60;12.80;;;13.60;75.90;;;;;;5031253;28;21274;-75
2022/03/29 08:23:10;;;;;;;22.23;11.33;;;13.70;76.80;;;;;;5029494;28;20210;-75
2022/03/29 08:25:38;;;;;;;25.17;13.17;;;14.00;76.70;;;;;;5030914;28;20789;-75
2022/03/29 08:28:05;;;;;;;22.63;12.00;;;14.00;73.10;;;;;;5029614;28;20431;-75
2022/03/29 08:30:32;;;;;;;16.50;12.10;;;14.10;72.70;;;;;;5030932;28;20919;-75
2022/03/29 08:32:59;;;;;;;15.90;11.60;;;14.40;73.40;;;;;;5046039;28;20474;-75
2022/03/29 08:35:25;;;;;;;21.70;12.30;;;14.50;71.10;;;;;;5046265;28;20423;-75
2022/03/29 08:37:51;;;;;;;27.13;12.80;;;14.60;70.40;;;;;;5046923;28;20880;-75
2022/03/29 08:40:21;;;;;;;22.27;11.63;;;14.70;70.00;;;;;;5030477;28;20197;-74
2022/03/29 08:42:49;;;;;;;30.93;11.70;;;14.70;70.70;;;;;;5031751;28;20443;-74
2022/03/29 08:45:17;;;;;;;15.97;11.47;;;14.70;71.10;;;;;;5031462;28;20506;-74
2022/03/29 08:47:45;;;;;;;20.23;10.93;;;14.70;73.00;;;;;;5032283;28;20541;-74
2022/03/29 08:50:12;;;;;;;16.33;9.97;;;14.70;71.30;;;;;;5031146;28;20511;-74
2022/03/29 08:52:39;;;;;;;27.47;11.90;;;14.80;63.70;;;;;;5031151;28;20443;-74
2022/03/29 08:55:06;;;;;;;156.87;22.70;;;14.90;61.90;;;;;;5030198;28;20423;-75
2022/03/29 08:57:32;;;;;;;39.33;12.10;;;15.00;60.30;;;;;;5030757;28;20756;-75
2022/03/29 08:59:59;;;;;;;15.80;10.13;;;15.00;58.40;;;;;;5031345;28;20431;-74
2022/03/29 09:02:25;;;;;;;17.57;10.73;;;15.00;56.30;;;;;;5031378;28;20818;-75
2022/03/29 09:05:12;;;;;;;17.60;9.90;;;15.00;57.20;;;;;;5031010;28;20643;-75
2022/03/29 09:07:54;;;;;;;19.37;9.93;;;15.10;57.50;;;;;;5031067;28;20422;-75
2022/03/29 09:10:39;;;;;;;13.87;10.03;;;15.20;56.50;;;;;;5031053;28;20442;-74
2022/03/29 09:13:24;;;;;;;17.60;10.30;;;15.30;54.20;;;;;;5030643;28;20427;-74
2022/03/29 09:15:52;;;;;;;42.70;12.40;;;15.60;55.90;;;;;;5030172;28;20518;-74
2022/03/29 09:18:18;;;;;;;27.10;9.60;;;15.70;55.00;;;;;;5029160;28;20420;-75
2022/03/29 09:20:45;;;;;;;15.63;9.90;;;15.70;53.90;;;;;;5045734;28;20768;-75
2022/03/29 09:23:20;;;;;;;17.40;10.20;;;15.70;54.10;;;;;;5045067;28;20440;-75
2022/03/29 09:25:47;;;;;;;20.80;10.00;;;15.70;54.10;;;;;;5028573;28;20469;-74
2022/03/29 09:28:15;;;;;;;22.43;11.90;;;15.90;53.00;;;;;;5012282;28;20538;-74
2022/03/29 09:30:49;;;;;;;21.83;10.90;;;16.40;54.60;;;;;;5029673;28;20427;-74
2022/03/29 09:33:18;;;;;;;18.67;10.80;;;16.80;53.30;;;;;;5029519;28;20478;-74
2022/03/29 09:35:53;;;;;;;19.70;10.50;;;17.10;54.10;;;;;;5028186;28;20458;-74
2022/03/29 09:38:21;;;;;;;26.97;11.30;;;17.20;50.20;;;;;;5029502;28;20421;-74
2022/03/29 09:40:47;;;;;;;19.47;10.97;;;17.40;50.20;;;;;;5044528;28;20430;-74
2022/03/29 09:43:13;;;;;;;25.43;11.07;;;17.90;51.20;;;;;;5029196;28;20518;-74
2022/03/29 09:45:47;;;;;;;39.13;12.60;;;18.40;48.60;;;;;;5027732;28;20230;-74
2022/03/29 09:48:26;;;;;;;19.83;11.07;;;18.80;47.80;;;;;;5044631;28;20763;-74
2022/03/29 09:51:10;;;;;;;50.27;11.47;;;19.10;48.40;;;;;;5028691;28;20427;-74
2022/03/29 09:53:47;;;;;;;121.23;21.20;;;18.90;45.80;;;;;;5028734;28;20438;-74
2022/03/29 09:56:19;;;;;;;25.43;10.73;;;19.00;45.50;;;;;;5027890;28;20572;-74
2022/03/29 09:58:45;;;;;;;23.97;9.73;;;18.90;44.10;;;;;;5029138;28;20426;-74
2022/03/29 10:01:25;;;;;;;14.47;10.77;;;19.10;44.10;;;;;;5027208;28;20473;-74
2022/03/29 10:03:53;;;;;;;16.27;10.63;;;19.20;44.10;;;;;;5026986;28;20428;-74
2022/03/29 10:06:22;;;;;;;15.00;9.80;;;19.40;44.00;;;;;;5028143;28;20476;-74
2022/03/29 10:11:35;;;;;;;17.87;10.10;;;19.80;44.60;;;;;;5040546;28;20434;-74
2022/03/29 10:14:02;;;;;;;15.83;11.40;;;20.00;43.20;;;;;;5028279;28;20500;-74
2022/03/29 10:16:29;;;;;;;18.00;10.80;;;20.40;43.80;;;;;;5028236;28;20495;-74
2022/03/29 10:18:55;;;;;;;12.93;9.30;;;20.50;41.10;;;;;;5043965;28;20473;-74
2022/03/29 10:21:22;;;;;;;16.20;9.83;;;20.70;42.40;;;;;;5043628;28;20433;-74
2022/03/29 10:23:51;;;;;;;15.10;9.43;;;20.80;42.60;;;;;;5028378;28;20425;-74
2022/03/29 10:26:22;;;;;;;14.80;9.67;;;20.80;43.50;;;;;;5028034;28;20498;-74
2022/03/29 10:28:48;;;;;;;16.37;9.33;;;20.70;41.60;;;;;;5027861;28;20972;-74
2022/03/29 10:31:36;;;;;;;15.60;10.20;;;20.50;43.10;;;;;;5026769;28;20411;-74
2022/03/29 10:34:42;;;;;;;18.03;10.97;;;20.20;43.90;;;;;;5026333;28;20808;-74
2022/03/29 10:37:09;;;;;;;32.07;10.63;;;20.00;45.80;;;;;;5028915;28;20425;-75
2022/03/29 10:39:55;;;;;;;15.53;10.13;;;20.00;46.60;;;;;;5009873;28;20846;-74
2022/03/29 10:42:26;;;;;;;22.20;10.07;;;20.00;45.10;;;;;;5044726;28;20447;-74
2022/03/29 10:44:59;;;;;;;17.97;10.00;;;19.90;45.50;;;;;;5030970;28;20514;-74
2022/03/29 10:47:26;;;;;;;70.60;14.73;;;19.70;46.00;;;;;;5030233;28;20409;-74
2022/03/29 10:49:52;;;;;;;83.27;15.40;;;19.70;45.40;;;;;;5028180;28;20502;-75
2022/03/29 10:52:20;;;;;;;31.97;10.60;;;19.70;45.60;;;;;;5027892;28;20449;-74
2022/03/29 10:54:47;;;;;;;20.17;9.67;;;19.90;45.60;;;;;;5027730;28;20275;-75
2022/03/29 10:57:25;;;;;;;14.07;9.80;;;20.00;46.00;;;;;;5026085;28;20458;-74
2022/03/29 10:59:58;;;;;;;17.10;8.87;;;20.00;42.00;;;;;;5027788;28;20824;-74
2022/03/29 11:02:25;;;;;;;14.30;9.20;;;20.10;42.70;;;;;;5042233;28;20440;-74
2022/03/29 11:05:03;;;;;;;16.50;9.10;;;20.40;45.60;;;;;;5027541;28;20462;-74
2022/03/29 11:07:52;;;;;;;17.97;9.50;;;20.70;43.50;;;;;;5027333;28;20423;-74
2022/03/29 11:10:20;;;;;;;19.83;9.77;;;21.10;41.50;;;;;;5025327;28;20526;-74
2022/03/29 11:12:51;;;;;;;16.60;9.00;;;21.40;39.20;;;;;;5027144;28;20885;-74
2022/03/29 11:15:35;;;;;;;16.90;9.53;;;21.50;39.40;;;;;;5026060;28;20473;-74
2022/03/29 11:18:04;;;;;;;21.17;9.80;;;21.20;37.80;;;;;;5042051;28;20804;-74
2022/03/29 11:20:38;;;;;;;13.70;9.70;;;21.20;36.30;;;;;;5041985;28;20437;-74
2022/03/29 11:23:05;;;;;;;82.77;14.60;;;21.40;36.80;;;;;;5025635;28;20454;-74
2022/03/29 11:25:45;;;;;;;123.67;17.90;;;21.50;35.80;;;;;;5041736;28;20524;-74
2022/03/29 11:28:16;;;;;;;13.40;9.63;;;21.60;35.80;;;;;;5027187;28;20427;-74
2022/03/29 11:30:42;;;;;;;14.57;9.90;;;21.60;35.50;;;;;;5042066;28;20450;-74
2022/03/29 11:33:09;;;;;;;25.53;10.83;;;21.60;34.30;;;;;;5025427;28;20561;-73
2022/03/29 11:35:36;;;;;;;69.57;14.30;;;21.80;35.80;;;;;;5025454;28;20446;-74
2022/03/29 11:38:16;;;;;;;15.50;9.00;;;21.80;35.50;;;;;;5025302;28;20813;-74
2022/03/29 11:40:42;;;;;;;15.03;9.33;;;21.60;35.80;;;;;;5026626;28;20902;-74
2022/03/29 11:43:15;;;;;;;25.67;9.97;;;21.80;36.30;;;;;;5028741;28;20752;-74
2022/03/29 11:45:47;;;;;;;17.60;8.90;;;21.90;37.10;;;;;;5031274;28;20457;-74
2022/03/29 11:48:14;;;;;;;22.70;10.03;;;22.10;35.20;;;;;;5045735;28;20423;-74
2022/03/29 11:50:52;;;;;;;20.70;10.40;;;21.90;32.80;;;;;;5030617;28;20944;-74
2022/03/29 11:53:31;;;;;;;13.17;9.43;;;21.90;34.60;;;;;;5030667;28;20473;-74
2022/03/29 11:55:58;;;;;;;14.90;8.30;;;21.80;33.00;;;;;;5030567;28;21019;-74
2022/03/29 11:58:25;;;;;;;19.93;8.97;;;21.80;34.20;;;;;;5030601;28;20456;-74
2022/03/29 12:00:50;;;;;;;17.63;9.63;;;21.90;36.60;;;;;;5030469;28;20427;-74
2022/03/29 12:03:27;;;;;;;21.93;9.60;;;21.80;36.00;;;;;;5028698;28;20454;-73
2022/03/29 12:06:14;;;;;;;30.20;9.17;;;21.70;33.40;;;;;;5028605;28;20768;-73
2022/03/29 12:08:47;;;;;;;14.30;8.90;;;21.60;34.60;;;;;;5030238;28;20860;-73
2022/03/29 12:11:25;;;;;;;19.70;9.73;;;21.50;34.20;;;;;;5028455;28;20427;-74
2022/03/29 12:14:01;;;;;;;15.67;9.03;;;21.20;33.90;;;;;;5028478;28;20437;-73
2022/03/29 12:16:28;;;;;;;22.67;8.83;;;21.10;32.90;;;;;;5044934;28;20426;-73
2022/03/29 12:18:55;;;;;;;21.17;9.53;;;21.00;31.50;;;;;;5028432;28;20808;-73
2022/03/29 12:21:23;;;;;;;23.97;9.57;;;20.90;32.80;;;;;;5030094;28;20422;-73
2022/03/29 12:23:57;;;;;;;27.67;9.60;;;20.90;33.30;;;;;;5030039;28;20418;-73
2022/03/29 12:26:24;;;;;;;41.70;9.00;;;21.10;33.00;;;;;;5030096;28;20477;-74
2022/03/29 12:28:50;;;;;;;36.23;9.27;;;20.80;30.50;;;;;;5045179;28;20418;-74
2022/03/29 12:31:18;;;;;;;36.47;9.70;;;20.90;32.00;;;;;;5028640;28;21106;-74
2022/03/29 12:33:45;;;;;;;34.13;9.23;;;20.50;30.80;;;;;;5029865;28;20446;-74
2022/03/29 12:36:14;;;;;;;34.90;8.80;;;20.30;31.90;;;;;;5045082;28;21014;-74
2022/03/29 12:38:42;;;;;;;28.23;8.73;;;20.50;32.50;;;;;;5029787;28;20515;-74
2022/03/29 12:41:08;;;;;;;30.83;7.90;;;20.40;33.60;;;;;;5029974;28;20423;-74
2022/03/29 12:43:35;;;;;;;42.07;9.67;;;20.50;35.50;;;;;;5044918;28;20443;-74
2022/03/29 12:46:05;;;;;;;30.77;8.07;;;20.70;34.20;;;;;;5029669;28;20474;-74
2022/03/29 12:48:31;;;;;;;32.50;8.53;;;20.90;32.50;;;;;;5029895;28;20431;-74
2022/03/29 12:51:03;;;;;;;35.53;7.90;;;21.00;33.00;;;;;;5029837;28;20408;-73